Member area
Imprimable
Habay, 18/06/2022, BEL - Les Forges de la forêt d'Anlier
List of reports > Les Forges - 20km - Result
Search: Page: [1]
76 Entries
 
Complains are not accepted anymore. Results are final.
PlaceNrNameAgeNATLeagueTeamRealTimeTkmMoy.ScrPTSCity
1.983CULLOP PAUL61BELENJAMBEE1:38:221:38:244:56 12.2059908BRUXELLES
2.4453BLOCK FRANCIS65BELFDCRUN1:42:541:43:045:10 11.6481870AUBANGE
3.327WOOLF ALAIN61BELFCHA1:45:341:45:355:17 11.3796848LIMONT
4.3624REICHARDT DENIS69FRA1:47:171:47:325:23 11.16105834LORRY LES METZ
5.1454YUNGBLUTH ALEXIS66BEL0680341:49:421:49:435:30 10.94121814SOULTZ
6.779LAUREYS PIERRE61BELANTILOB1:52:401:53:355:41 10.57153785COURT-SAINT-ETIENNE
7.886DE BRESSING MICHEL65BEL1:53:471:53:545:42 10.54157777BONNERT
8.737VROMMAN THIERRY61BELSPTWAVRE1:54:471:55:045:46 10.43176765DION-VALMONT
9.1442FINGER JEAN-MICHEL63FRAFFA1:54:411:55:175:46 10.41179765NIEDERENTZEN
10.58HENRY ANDRE62BELRCB1:56:331:56:445:51 10.28194749LA HULPE
11.6953BORSI CLAUDE68LUX1:57:431:59:055:58 10.08220734LUXEMBOURG
12.1453SCHMITT JOEL60FRA0680341:59:111:59:506:00 10.02226724HERRLISHEIM PRES COLMAR
13.494MATHY JEAN-LUC69BELRCNAMUR2:01:182:01:226:05 9.89240707NAMUR
14.4332BOUYON BERNARD67FRAUMS PC2:02:462:03:056:10 9.75269690PONTAULT-COMBAULT
15.12BULTOT CHRISTIAN64BELARCH2:03:452:04:376:14 9.63281680SCHALTIN
16.22DE MASI GIANNI69ITAFLEU2:05:122:05:266:17 9.57287671ROSELIES
17.580HOMBROUX MARCEL69BELHANNUT JOGGING2:04:102:05:306:17 9.56290675MONTENAKEN
18.621DEWEZ ALEX66BEL2:07:392:07:516:24 9.39308650ERPENT
19.6722LAURENT BRUNO60BEL2:07:282:07:596:24 9.38311651MONT-SAINT-ANDRÉ
20.4410BRASSEUR ROBERT68BELJOG IN BASTOGNE2:07:362:08:296:26 9.34318648NAMUR
21.3701PERNEL PHILIPPE67FRA2:08:542:09:086:28 9.29330637BLENOD LES PONT A MOUSSON
22.3679STRANEN MARC63LUXDHHASD2:08:092:09:146:28 9.29332640HOVELANGE
23.6737PONLOT JEAN-JACQUES60BEL2:09:442:09:506:30 9.24340629BELLEFONTAINE
24.992LETHÉ VINCENT62BELRONVAU2:09:512:10:186:31 9.21343628GRAND-MANIL
25.615MAUS JAN64BELROBA2:11:202:11:446:36 9.11375610RAMSEL
26.4350ARENDT VIC63LUX2:15:242:16:376:50 8.78452565LUXEMBOURG
27.429DENEFFE PHILIPPE61BELRUNNING CLUB NAMUR2:19:152:19:487:00 8.58496532HOUYET
28.464VIDICK JEAN-LUC69BELMYSTERE2:19:452:19:507:00 8.58497529LA ROCHE-EN-ARDENNE
29.611DUMORTIER CHRISTOPHE60BELSPTWAVRE2:22:482:23:497:12 8.34540501LOUVAIN LA NEUVE
30.3826PONCIN GÉRARD66BEL2:23:552:24:497:15 8.29555491NEUFCHÂTEAU
31.4189DE LEEUW PHILIPPE62BEL2:24:512:24:597:15 8.28559485WEZEMBEEK
32.4333VIGEANEL BRUNO62FRAFFAUMS PONTAULT-COMBAUL2:25:272:25:467:18 8.23567480PONTAULT COMBAULT
33.646FRANCOIS SERGE63BEL2:25:242:25:577:18 8.22569479MEIX DEVANT VIRTON
34.1447HASENFRATZ JEANLUC61FRA0680342:24:422:26:017:19 8.22571482ROUFFACH
35.4365SCHMITZ HARALD62DEULG LANGSUR2:27:002:27:347:23 8.13586466IGEL
36.4128NEUBERG CLAUDE64BEL2:27:152:28:207:25 8.09595462HABAY-LA-NEUVE
37.3634STEIL THOMAS60DEULG LANLG LANGSUR2:27:362:28:547:27 8.06599460LANGSUR
38.4112CAMUS JEAN-LUC61FRABUSSY RUNNING2:28:102:29:167:28 8.04606455SANTENY
39.228DEFRAENE PATRICK60BELANTILOB2:30:582:32:007:36 7.89637432NODEBAIS
40.4240BOURGAUX ROGER62BEL2:31:062:32:287:38 7.87640430TRAZEGNIES
41.3810CLÉMENT YVES63BEL2:33:392:34:377:44 7.76668410METZERT
42.1469GUIOT DANIEL63BEL2:33:292:34:437:45 7.76671410ARLON
43.4525MATON JEAN-LUC62BEL2:34:152:35:187:46 7.73679404AUBANGE
44.4315SORÉE HERVÉ63BELGAG2:34:062:35:267:47 7.72681404GEMBLOUX
45.3360VANDEZANDE LUC66BELRCNAMU2:35:582:36:437:51 7.66691393SART-BERNARD ASSESSE
46.449MARCHAL PATRICK61BELGAG2:36:342:37:217:53 7.63693389GEMBLOUX
47.6926BOTHOREL YVES63FRACOURIR A MORLAIX2:38:552:40:128:01 7.49704376SAINT MARTIN DES CHAMPS
48.1446GRUHN PASCAL63FRA0680342:40:002:40:368:02 7.47714368GUNDOLSHEIM
49.3725WATTIEZ DIDIER61BELOBJ2:43:192:44:118:13 7.31752342HONNELLES
50.4406LEPAPE ALAIN64BELOBJ2:43:272:44:138:13 7.31758339HORNU
51.4245PERL DENIS64FRAHAPPY TEAM2:42:532:44:248:14 7.30766339THIONVILLE
52.4388BIDON JEAN63FRAHAPPY TEAM2:43:032:44:348:14 7.29770337WOIPPY
53.4211BRON JEAN MICHEL60FRARUY MONTCEAU2:43:412:44:568:15 7.28777333BOURGOIN-JALLIEU (38300)
54.3372TRIS ALDO61ITA2:45:352:46:448:21 7.20785322PETANGE
55.6940JANSSENS ROLAND62BELTORTUES MESLINOISES2:45:592:47:318:23 7.16790319LENS
56.966GRANDFILS ERIC65BELJC BAUDOUR2:46:572:47:318:23 7.16791315BELLIGNIES
57.6743DANTZER GILBERT68FRAAJT VDF2:53:222:53:578:42 6.90829276HOUILLES
58.4256PAVAN JEAN-PAUL66FRA2:53:262:53:578:42 6.90831276BRANCHES
59.6744LANCHAS PASCAL65FRA2:53:242:53:578:42 6.90832275SAVIGNY SUR ORGE
60.4132PARIS GILLES63FRA2:53:242:53:588:42 6.90833275SALLES SUR MER
61.493MOISE PATRICK62BELRCNAMUR2:55:202:55:458:48 6.83841265JAMBES
62.4468DELVA JEAN-PAUL64BELZATAC2:54:542:56:228:50 6.80846265TROOZ
63.3396BERTHOLOME ERIC60BEL2:55:572:57:258:53 6.76859257TILFF - ESNEUX
64.203ALBERT MICHEL61BELGAG2:59:463:00:329:02 6.65873238NAMECHE
65.4523BARRAS THIERRY63BEL3:01:003:02:069:07 6.59882230VANCE
66.3605PERLIC PATRICK61LUX3:01:133:02:099:07 6.59884229DUDELANGE
67.4200CALLURA SELVINO60BEL3:07:463:08:349:26 6.36913195BOUSSU
68.4114VAN CRAEN JEAN CLAUDE65BEL3:08:163:09:479:30 6.32917192ARLON
69.4199MICHEL OLIVIER60BELOBJ3:09:153:10:089:31 6.31919188COLFONTAINE
70.4316PHILIPPON JEAN PAUL67BELLENDEMAINS DE LA VEI3:20:333:21:5810:06 5.94954137BRUXELLES
71.8ANTOINE ALAIN61BELRCNAMUR3:23:143:24:0410:13 5.88956127TEMPLOUX
72.6984DELANDMETER LUC62BELJACO3:33:503:35:2010:46 5.57101175CHIMAY
73.3646TAVIER PASCAL60BEL3:37:243:38:3710:56 5.49101562THIMEON
74.4248PAINBLANC DIDIER67BELJC THIMÉON3:37:233:38:3810:56 5.49101662THIMÉON
75.33GEORGES FRANÇOIS66BEL6:38:006:38:0019:54 3.0210721IXELLES
DSQ1514CHENNAUX MICHEL69BEL1:58:191:59:30ORSINFAING
DNF: did not finish; DSQ: disqualified; Speed in km/h
Page: [1]